Time;durP1;ratioP1;P1;durP2;ratioP2;P2;SDS_P1;SDS_P2;PMS_P1;PMS_P2;Temp;Humidity;BMP_temperature;BMP_pressure;BME280_temperature;BME280_humidity;BME280_pressure;Samples;Min_cycle;Max_cycle;Signal;HPM_P1;HPM_P2
2022/06/24 00:02:12;;;;;;;6.63;6.10;;;;;;;16.91;100.00;99045.44;5083808;28;20278;-80
2022/06/24 00:04:39;;;;;;;6.50;6.07;;;;;;;16.91;100.00;99053.56;5083559;28;20260;-81
2022/06/24 00:07:14;;;;;;;7.00;6.30;;;;;;;16.92;100.00;99057.91;5092664;28;20254;-81
2022/06/24 00:09:41;;;;;;;7.03;6.40;;;;;;;16.91;100.00;99056.28;5081523;28;20774;-81
2022/06/24 00:12:12;;;;;;;7.40;6.60;;;;;;;16.80;100.00;99053.88;5082833;28;20240;-80
2022/06/24 00:14:41;;;;;;;7.17;6.57;;;;;;;16.73;100.00;99052.25;5087116;28;20263;-80
2022/06/24 00:17:13;;;;;;;7.03;6.33;;;;;;;16.71;100.00;99054.41;5088965;28;20228;-80
2022/06/24 00:19:55;;;;;;;6.80;6.20;;;;;;;16.71;100.00;99050.91;5089591;28;20317;-80
2022/06/24 00:22:22;;;;;;;6.70;6.20;;;;;;;16.64;100.00;99053.09;5086284;28;20238;-80
2022/06/24 00:25:06;;;;;;;7.17;6.60;;;;;;;16.59;100.00;99047.69;5089832;28;20224;-81
2022/06/24 00:27:32;;;;;;;6.60;6.00;;;;;;;16.55;100.00;99052.78;5091924;28;20228;-81
2022/06/24 00:30:10;;;;;;;7.40;6.50;;;;;;;16.51;100.00;99053.63;5086966;28;20223;-81
2022/06/24 00:32:37;;;;;;;7.20;6.60;;;;;;;16.46;100.00;99053.63;5082752;28;20251;-81
2022/06/24 00:35:12;;;;;;;6.87;6.20;;;;;;;16.41;100.00;99054.44;5084715;28;20225;-81
2022/06/24 00:37:40;;;;;;;7.30;6.60;;;;;;;16.37;100.00;99053.34;5083841;28;20224;-80
2022/06/24 00:40:10;;;;;;;7.40;6.70;;;;;;;16.36;100.00;99046.31;5082194;28;20267;-81
2022/06/24 00:42:37;;;;;;;7.33;6.73;;;;;;;16.30;100.00;99045.50;5088292;28;20713;-81
2022/06/24 00:45:41;;;;;;;7.20;6.60;;;;;;;16.27;100.00;99045.25;5089233;28;20704;-81
2022/06/24 00:48:13;;;;;;;7.40;6.80;;;;;;;16.20;100.00;99048.19;5074112;28;20244;-80
2022/06/24 00:50:44;;;;;;;7.47;6.87;;;;;;;16.21;100.00;99044.44;5073183;28;20583;-81
2022/06/24 00:53:11;;;;;;;7.40;6.80;;;;;;;16.14;100.00;99046.56;5057009;28;20307;-81
2022/06/24 00:55:40;;;;;;;7.70;7.10;;;;;;;16.08;100.00;99044.16;5070472;28;20224;-81
2022/06/24 00:58:13;;;;;;;7.67;7.00;;;;;;;16.04;100.00;99046.59;5046671;28;20234;-81
2022/06/24 01:00:43;;;;;;;7.30;6.70;;;;;;;16.02;100.00;99037.94;5075379;28;20282;-81
2022/06/24 01:03:11;;;;;;;7.77;7.07;;;;;;;16.01;100.00;99040.88;5066985;28;20228;-80
2022/06/24 01:05:38;;;;;;;7.77;7.17;;;;;;;15.97;100.00;99043.31;5070353;28;20229;-81
2022/06/24 01:08:10;;;;;;;7.77;7.07;;;;;;;15.93;100.00;99044.94;5066718;28;20225;-81
2022/06/24 01:10:37;;;;;;;7.90;7.30;;;;;;;15.88;100.00;99036.81;5072696;28;20228;-80
2022/06/24 01:13:08;;;;;;;8.07;7.37;;;;;;;15.82;100.00;99037.88;5064689;28;20328;-81
2022/06/24 01:15:36;;;;;;;7.67;6.97;;;;;;;15.77;100.00;99032.50;5067201;28;20224;-81
2022/06/24 01:18:03;;;;;;;7.43;6.93;;;;;;;15.77;100.00;99027.88;5070722;28;20319;-80
2022/06/24 01:20:29;;;;;;;7.83;7.23;;;;;;;15.75;100.00;99029.25;5076164;28;20229;-81
2022/06/24 01:22:56;;;;;;;8.63;6.97;;;;;;;15.70;100.00;99027.34;5067156;28;20236;-81
2022/06/24 01:25:23;;;;;;;7.70;7.10;;;;;;;15.65;100.00;99026.53;5074226;28;20228;-80
2022/06/24 01:27:50;;;;;;;7.47;6.87;;;;;;;15.62;100.00;99024.38;5066552;28;20264;-80
2022/06/24 01:30:16;;;;;;;7.87;7.17;;;;;;;15.59;100.00;99017.59;5068834;28;20228;-80
2022/06/24 01:32:43;;;;;;;7.90;7.30;;;;;;;15.59;100.00;99016.78;5071173;28;20237;-81
2022/06/24 01:35:12;;;;;;;8.00;7.40;;;;;;;15.57;100.00;99019.78;5070344;28;20222;-80
2022/06/24 01:37:39;;;;;;;7.70;7.10;;;;;;;15.55;100.00;99007.59;5066108;28;20257;-80
2022/06/24 01:40:06;;;;;;;8.40;7.70;;;;;;;15.52;100.00;99005.44;5059151;28;20489;-80
2022/06/24 01:42:33;;;;;;;8.50;7.80;;;;;;;15.52;100.00;99010.84;5065399;28;20232;-81
2022/06/24 01:45:00;;;;;;;8.10;7.50;;;;;;;15.50;100.00;99011.06;5075017;28;20264;-82
2022/06/24 01:47:26;;;;;;;8.40;7.70;;;;;;;15.52;100.00;99008.97;5084169;28;20242;-80
2022/06/24 01:49:53;;;;;;;8.30;7.60;;;;;;;15.49;100.00;99004.03;5104144;28;20259;-81
2022/06/24 01:52:20;;;;;;;8.30;7.70;;;;;;;15.48;100.00;99009.72;5094937;28;20227;-81
2022/06/24 01:54:46;;;;;;;8.43;7.67;;;;;;;15.44;100.00;99017.56;5094269;28;20633;-81
2022/06/24 01:57:13;;;;;;;8.40;7.70;;;;;;;15.42;100.00;99015.09;5091470;28;20323;-82
2022/06/24 01:59:40;;;;;;;8.40;7.70;;;;;;;15.44;100.00;99004.84;5097813;28;20690;-83
2022/06/24 02:02:07;;;;;;;8.40;7.77;;;;;;;15.42;100.00;99014.28;5093971;28;20231;-81
2022/06/24 02:04:34;;;;;;;8.60;7.87;;;;;;;15.40;100.00;99003.75;5088403;28;20229;-81
2022/06/24 02:07:01;;;;;;;9.17;8.47;;;;;;;15.39;100.00;99010.25;5099107;28;20242;-81
2022/06/24 02:09:27;;;;;;;9.13;8.40;;;;;;;15.40;100.00;99000.22;5087118;28;20335;-81
2022/06/24 02:14:39;;;;;;;8.63;7.93;;;;;;;15.32;100.00;99001.56;5099290;28;20220;-81
2022/06/24 02:17:11;;;;;;;8.37;7.77;;;;;;;15.30;100.00;99001.00;5098830;28;20269;-81
2022/06/24 02:19:37;;;;;;;9.03;8.20;;;;;;;15.27;100.00;98998.84;5097053;28;20216;-82
2022/06/24 02:22:04;;;;;;;8.53;7.80;;;;;;;15.22;100.00;98985.34;5097299;28;20227;-80
2022/06/24 02:24:31;;;;;;;8.70;8.00;;;;;;;15.21;100.00;98989.13;5094117;28;20315;-81
2022/06/24 02:26:57;;;;;;;8.40;7.73;;;;;;;15.22;100.00;98985.34;5093540;28;20714;-80
2022/06/24 02:29:24;;;;;;;8.97;8.27;;;;;;;15.24;100.00;98993.19;5092513;28;20238;-80
2022/06/24 02:31:51;;;;;;;8.63;7.93;;;;;;;15.18;100.00;99000.44;5095632;28;20228;-80
2022/06/24 02:34:17;;;;;;;9.47;8.77;;;;;;;15.18;100.00;98992.34;5089725;28;20695;-81
2022/06/24 02:36:44;;;;;;;9.27;8.47;;;;;;;15.06;100.00;98989.09;5091871;28;20665;-80
2022/06/24 02:39:11;;;;;;;10.27;9.27;;;;;;;15.05;100.00;98992.03;5090751;28;20238;-80
2022/06/24 02:41:37;;;;;;;10.00;9.07;;;;;;;15.01;100.00;98997.16;5088883;28;20221;-81
2022/06/24 02:44:04;;;;;;;9.77;8.90;;;;;;;15.02;100.00;98995.28;5083847;28;20252;-80
2022/06/24 02:46:31;;;;;;;10.03;9.23;;;;;;;15.02;100.00;98996.09;5094856;28;20228;-80
2022/06/24 02:48:58;;;;;;;9.80;9.07;;;;;;;15.04;100.00;98987.72;5116234;27;20299;-80
2022/06/24 02:51:25;;;;;;;9.77;8.87;;;;;;;15.14;100.00;98990.44;5108981;27;20633;-81
2022/06/24 02:53:51;;;;;;;10.13;9.23;;;;;;;15.17;100.00;98981.81;5108782;27;20702;-80
2022/06/24 02:56:18;;;;;;;9.90;9.10;;;;;;;15.20;100.00;98984.00;5110825;28;20322;-81
2022/06/24 02:58:45;;;;;;;9.37;8.57;;;;;;;15.26;100.00;98985.63;5111862;27;20235;-81
2022/06/24 03:01:12;;;;;;;9.03;8.23;;;;;;;15.29;100.00;98977.00;5110504;27;20255;-81
2022/06/24 03:03:39;;;;;;;9.53;8.70;;;;;;;15.35;100.00;98986.75;5105596;27;20220;-81
2022/06/24 03:06:06;;;;;;;9.53;8.73;;;;;;;15.40;100.00;98984.03;5109981;27;20220;-81
2022/06/24 03:08:33;;;;;;;8.83;8.13;;;;;;;15.46;100.00;98988.38;5113747;27;20277;-82
2022/06/24 03:11:00;;;;;;;9.17;8.47;;;;;;;15.49;100.00;98985.13;5123844;27;20227;-80
2022/06/24 03:13:28;;;;;;;9.03;8.20;;;;;;;15.53;100.00;98977.38;5111305;27;20246;-81
2022/06/24 03:15:54;;;;;;;9.10;8.30;;;;;;;15.59;100.00;98977.09;5102487;27;20258;-81
2022/06/24 03:18:23;;;;;;;9.60;8.60;;;;;;;15.82;100.00;98978.47;5121196;27;20326;-80
2022/06/24 03:20:50;;;;;;;9.13;8.27;;;;;;;16.03;100.00;98980.13;5124094;27;20318;-80
2022/06/24 03:23:16;;;;;;;8.93;8.23;;;;;;;16.24;100.00;98979.00;5123113;27;20218;-79
2022/06/24 03:25:43;;;;;;;8.60;7.70;;;;;;;16.43;100.00;98981.97;5118664;27;20223;-80
2022/06/24 03:28:11;;;;;;;7.90;7.30;;;;;;;16.49;100.00;98988.16;5099749;28;20254;-80
2022/06/24 03:30:37;;;;;;;8.07;7.47;;;;;;;16.53;100.00;98990.06;5105940;28;20776;-80
2022/06/24 03:33:05;;;;;;;8.07;7.37;;;;;;;16.57;100.00;98987.59;5112616;27;20232;-80
2022/06/24 03:35:31;;;;;;;8.53;7.87;;;;;;;16.62;100.00;98988.44;5120007;27;20242;-80
2022/06/24 03:37:58;;;;;;;8.30;7.67;;;;;;;16.65;100.00;98982.50;5112204;27;20593;-81
2022/06/24 03:40:25;;;;;;;8.33;7.73;;;;;;;16.72;100.00;98988.41;5112116;27;20766;-80
2022/06/24 03:42:52;;;;;;;7.87;7.27;;;;;;;16.78;100.00;98986.50;5112754;27;20767;-83
2022/06/24 03:45:19;;;;;;;7.87;7.27;;;;;;;16.83;100.00;98991.09;5112816;27;20728;-80
2022/06/24 03:47:45;;;;;;;8.40;7.70;;;;;;;16.82;100.00;98987.56;5106897;28;20774;-81
2022/06/24 03:50:12;;;;;;;7.93;7.23;;;;;;;16.83;100.00;98996.50;5113937;28;20241;-81
2022/06/24 03:52:38;;;;;;;10.43;7.40;;;;;;;16.80;100.00;98997.84;5109259;27;20306;-82
2022/06/24 03:55:05;;;;;;;8.10;7.30;;;;;;;16.78;100.00;98994.63;5113759;27;20596;-81
2022/06/24 03:57:32;;;;;;;8.90;8.00;;;;;;;16.83;100.00;99008.16;5116039;27;21069;-81
2022/06/24 03:59:59;;;;;;;8.67;7.97;;;;;;;16.88;100.00;98999.19;5111691;27;20239;-81
2022/06/24 04:02:25;;;;;;;9.77;8.83;;;;;;;16.91;100.00;98996.75;5112762;27;20377;-82
2022/06/24 04:04:53;;;;;;;8.53;7.97;;;;;;;17.09;100.00;99006.97;5117262;27;20222;-81
2022/06/24 04:07:19;;;;;;;9.23;8.33;;;;;;;17.59;100.00;99005.09;5113055;27;20292;-81
2022/06/24 04:09:46;;;;;;;8.63;7.80;;;;;;;18.12;100.00;99008.81;5111971;27;20634;-81
2022/06/24 04:12:12;;;;;;;8.00;7.40;;;;;;;18.84;100.00;99016.03;5110210;27;20228;-80
2022/06/24 04:17:25;;;;;;;8.13;7.33;;;;;;;20.04;100.00;99019.34;5105442;27;20280;-80
2022/06/24 04:19:52;;;;;;;8.33;6.77;;;;;;;20.51;100.00;99023.75;5107213;27;20224;-82
2022/06/24 04:22:20;;;;;;;7.83;7.13;;;;;;;20.89;100.00;99019.78;5098904;28;20237;-80
2022/06/24 04:24:47;;;;;;;8.90;7.20;;;;;;;21.60;100.00;99015.63;5115942;27;20233;-81
2022/06/24 04:27:14;;;;;;;7.00;6.33;;;;;;;22.38;100.00;99017.88;5107621;28;20234;-82
2022/06/24 04:29:40;;;;;;;6.90;6.20;;;;;;;23.19;100.00;99031.28;5111658;27;20320;-81
2022/06/24 04:32:07;;;;;;;7.07;6.33;;;;;;;24.08;99.29;99072.66;5111855;28;20297;-81
2022/06/24 04:34:36;;;;;;;7.00;6.40;;;;;;;24.67;90.35;99048.31;5105183;27;20793;-84
2022/06/24 04:37:03;;;;;;;7.03;6.20;;;;;;;25.06;83.83;99013.53;5078125;28;20233;-82
2022/06/24 04:39:30;;;;;;;7.10;6.50;;;;;;;25.43;82.01;99023.66;5111044;27;20237;-81
2022/06/24 04:41:57;;;;;;;9.20;6.73;;;;;;;25.12;84.72;99021.25;5122320;27;20257;-81
2022/06/24 04:44:23;;;;;;;7.93;6.40;;;;;;;24.26;89.88;99015.22;5111890;27;20227;-83
2022/06/24 04:46:50;;;;;;;7.70;6.63;;;;;;;23.57;100.00;99018.72;5102889;27;20835;-82
2022/06/24 04:49:17;;;;;;;7.27;6.67;;;;;;;23.28;100.00;99019.25;5118403;27;20233;-80
2022/06/24 04:51:43;;;;;;;7.33;6.73;;;;;;;23.06;100.00;99015.81;5096490;28;20223;-81
2022/06/24 04:54:10;;;;;;;7.47;6.80;;;;;;;22.89;100.00;99022.03;5121220;27;20309;-81
2022/06/24 04:56:36;;;;;;;7.37;6.53;;;;;;;22.87;100.00;99023.44;5115252;27;20242;-82
2022/06/24 04:59:03;;;;;;;6.83;6.23;;;;;;;22.83;100.00;99020.56;5102707;28;20234;-81
2022/06/24 05:01:30;;;;;;;6.77;5.60;;;;;;;22.72;100.00;99016.50;5105182;28;20319;-81
2022/06/24 05:03:59;;;;;;;6.32;5.68;;;;;;;22.66;100.00;99015.78;5075272;27;20309;-82
2022/06/24 05:06:26;;;;;;;5.73;5.20;;;;;;;22.52;100.00;99012.34;5085119;28;20242;-82
2022/06/24 05:08:52;;;;;;;6.70;5.27;;;;;;;22.43;100.00;99018.88;5094976;27;20666;-81
2022/06/24 05:11:19;;;;;;;5.47;5.00;;;;;;;22.58;100.00;99016.56;5096974;28;20970;-81
2022/06/24 05:13:46;;;;;;;7.32;4.70;;;;;;;22.64;100.00;99018.00;5093279;28;20259;-82
2022/06/24 05:16:12;;;;;;;5.25;4.75;;;;;;;22.78;100.00;99016.03;5072456;28;20242;-82
2022/06/24 05:18:59;;;;;;;5.15;4.68;;;;;;;22.92;100.00;99017.84;5101577;28;20431;-81
2022/06/24 05:21:25;;;;;;;5.00;4.60;;;;;;;22.76;100.00;99014.75;5103310;28;20319;-82
2022/06/24 05:23:52;;;;;;;4.80;4.37;;;;;;;22.84;100.00;99016.69;5103370;27;20227;-81
2022/06/24 05:26:19;;;;;;;4.60;4.30;;;;;;;23.00;100.00;99014.38;5110117;28;20251;-82
2022/06/24 05:28:46;;;;;;;6.10;4.47;;;;;;;23.04;100.00;99015.34;5092480;27;20226;-81
2022/06/24 05:31:13;;;;;;;5.13;4.23;;;;;;;22.96;100.00;99011.44;5104644;27;20311;-81
2022/06/24 05:33:39;;;;;;;5.70;4.30;;;;;;;23.06;100.00;99018.56;5110415;28;20254;-80
2022/06/24 05:36:06;;;;;;;4.60;4.15;;;;;;;23.30;100.00;99012.69;5103587;28;20253;-80
2022/06/24 05:38:33;;;;;;;6.82;4.85;;;;;;;23.59;100.00;99016.47;5101046;28;20865;-82
2022/06/24 05:40:59;;;;;;;5.28;4.47;;;;;;;23.85;100.00;99018.41;5105586;28;20235;-81
2022/06/24 05:43:26;;;;;;;4.78;4.25;;;;;;;24.03;100.00;99009.06;5116092;28;20321;-81
2022/06/24 05:45:53;;;;;;;4.72;4.30;;;;;;;24.09;95.74;99005.06;5093182;28;20595;-82
2022/06/24 05:48:20;;;;;;;5.60;4.38;;;;;;;24.41;93.05;99010.03;5107982;28;20280;-81
2022/06/24 05:50:46;;;;;;;4.93;4.43;;;;;;;24.64;89.36;99007.88;5115015;28;20751;-81
2022/06/24 05:56:06;;;;;;;4.80;4.40;;;;;;;25.14;86.29;99010.78;5107120;28;20222;-81
2022/06/24 05:58:32;;;;;;;5.25;4.05;;;;;;;25.42;80.61;99005.63;5086662;28;20231;-80
2022/06/24 06:00:59;;;;;;;4.70;4.30;;;;;;;25.59;78.43;99002.78;5111317;28;20257;-81
2022/06/24 06:03:26;;;;;;;4.15;3.85;;;;;;;25.87;78.30;99000.31;5106766;28;20234;-81
2022/06/24 06:05:53;;;;;;;4.55;4.15;;;;;;;26.14;74.26;99005.25;5108663;28;20226;-80
2022/06/24 06:08:19;;;;;;;4.20;3.90;;;;;;;26.21;73.50;98994.56;5102677;28;20321;-81
2022/06/24 06:10:47;;;;;;;4.50;4.10;;;;;;;26.42;73.03;99000.00;5081099;28;20226;-81
2022/06/24 06:13:14;;;;;;;4.75;4.32;;;;;;;26.41;71.89;98995.63;5105230;28;20618;-81
2022/06/24 06:15:42;;;;;;;13.35;4.20;;;;;;;26.55;73.69;98993.38;5114671;27;20324;-81
2022/06/24 06:18:09;;;;;;;4.45;4.05;;;;;;;26.68;71.37;99000.53;5100367;27;20243;-81
2022/06/24 06:20:37;;;;;;;5.00;4.05;;;;;;;26.82;73.17;98996.66;5096253;28;20235;-80
2022/06/24 06:23:11;;;;;;;5.85;4.13;;;;;;;26.87;70.16;98997.28;5096773;28;20794;-81
2022/06/24 06:25:39;;;;;;;4.18;3.58;;;;;;;26.97;66.87;98983.03;5099929;28;20252;-81
2022/06/24 06:28:05;;;;;;;5.43;4.00;;;;;;;27.16;60.17;98982.47;5093776;27;20282;-81
2022/06/24 06:30:32;;;;;;;3.90;3.50;;;;;;;27.22;58.12;98980.31;5088092;27;20330;-81
2022/06/24 06:32:59;;;;;;;4.57;3.60;;;;;;;27.25;59.64;98979.63;5090788;28;20266;-81
2022/06/24 06:35:26;;;;;;;5.72;3.67;;;;;;;27.38;56.92;98973.78;5111646;27;20223;-80
2022/06/24 06:37:52;;;;;;;4.35;3.40;;;;;;;27.29;57.87;98983.28;5118718;27;20585;-81
2022/06/24 06:40:19;;;;;;;5.30;3.70;;;;;;;27.30;58.27;98982.91;5104729;27;20681;-80
2022/06/24 06:42:46;;;;;;;6.35;3.50;;;;;;;27.25;57.76;98979.63;5127712;27;20239;-81
2022/06/24 06:45:12;;;;;;;3.40;3.10;;;;;;;27.07;58.55;98982.59;5124893;27;20239;-80
2022/06/24 06:47:39;;;;;;;5.18;3.65;;;;;;;27.01;59.76;98974.94;5119373;27;20238;-81
2022/06/24 06:50:06;;;;;;;4.68;3.60;;;;;;;27.15;55.93;98969.91;5092800;27;20737;-81
2022/06/24 06:52:37;;;;;;;4.20;3.38;;;;;;;27.27;56.13;98971.81;5083492;28;20231;-81
2022/06/24 06:55:04;;;;;;;3.70;3.00;;;;;;;27.32;56.86;98977.91;5113454;28;20992;-81
2022/06/24 06:57:31;;;;;;;5.25;3.78;;;;;;;27.29;55.18;98983.28;5110701;28;20230;-81
2022/06/24 06:59:57;;;;;;;5.03;3.13;;;;;;;27.35;55.24;98981.88;5112449;27;20227;-80
2022/06/24 07:02:24;;;;;;;3.78;3.47;;;;;;;27.36;55.53;98984.31;5116903;27;20279;-80
2022/06/24 07:04:51;;;;;;;3.55;3.25;;;;;;;27.21;55.49;98992.44;5118961;27;20694;-81
2022/06/24 07:07:18;;;;;;;4.10;3.35;;;;;;;27.14;56.15;98993.03;5120455;27;20247;-80
2022/06/24 07:09:44;;;;;;;5.47;3.70;;;;;;;27.26;56.08;98990.25;5112499;27;20321;-81
2022/06/24 07:12:11;;;;;;;3.35;2.97;;;;;;;27.36;56.50;98994.50;5129031;27;20674;-81
2022/06/24 07:14:40;;;;;;;3.67;3.38;;;;;;;27.63;58.23;98999.28;5106657;28;20365;-80
2022/06/24 07:17:13;;;;;;;3.78;3.38;;;;;;;27.72;56.13;99002.72;5091768;27;20294;-80
2022/06/24 07:19:40;;;;;;;4.10;3.80;;;;;;;27.71;55.92;99000.34;5092363;28;20590;-81
2022/06/24 07:22:06;;;;;;;4.93;3.83;;;;;;;27.93;55.31;99005.31;5107362;28;20330;-81
2022/06/24 07:24:34;;;;;;;5.57;3.80;;;;;;;28.10;57.87;99004.19;5118504;27;20242;-81
2022/06/24 07:27:08;;;;;;;6.03;4.45;;;;;;;28.20;56.06;99009.25;5106048;27;20234;-81
2022/06/24 07:29:36;;;;;;;5.53;4.40;;;;;;;27.94;58.70;98998.66;5115169;27;20219;-81
2022/06/24 07:32:05;;;;;;;6.13;4.30;;;;;;;27.89;59.40;99002.47;5098977;27;20227;-80
2022/06/24 07:34:33;;;;;;;4.70;4.25;;;;;;;27.92;60.38;98999.00;5120054;27;20222;-81
2022/06/24 07:37:00;;;;;;;4.70;4.38;;;;;;;27.94;60.93;98999.47;5081858;28;20239;-82
2022/06/24 07:39:28;;;;;;;4.72;3.92;;;;;;;28.01;62.13;99001.59;5101597;27;20239;-81
2022/06/24 07:41:55;;;;;;;4.20;3.90;;;;;;;28.11;61.39;99003.88;5085994;27;20320;-81
2022/06/24 07:44:22;;;;;;;4.85;4.15;;;;;;;28.24;62.00;99002.69;5103869;27;21299;-80
2022/06/24 07:46:49;;;;;;;5.97;4.40;;;;;;;28.32;61.78;98996.22;5118873;27;20259;-80
2022/06/24 07:49:16;;;;;;;5.05;4.43;;;;;;;28.38;60.63;98991.25;5106208;27;20276;-80
2022/06/24 07:51:43;;;;;;;5.68;4.60;;;;;;;28.56;60.38;98995.28;5115885;27;20231;-80
2022/06/24 07:54:10;;;;;;;5.50;4.70;;;;;;;28.87;57.32;98986.28;5117212;27;20711;-81
2022/06/24 07:59:27;;;;;;;5.18;4.10;;;;;;;29.91;53.73;98984.78;5118544;27;20262;-79
2022/06/24 08:01:55;;;;;;;6.03;4.50;;;;;;;30.36;51.30;98982.13;5081409;28;20230;-81
2022/06/24 08:04:22;;;;;;;5.25;4.40;;;;;;;30.63;51.73;98980.25;5110286;27;20223;-80
2022/06/24 08:06:50;;;;;;;5.70;4.00;;;;;;;30.76;49.46;98980.88;5098007;27;20232;-80
2022/06/24 08:09:17;;;;;;;5.18;4.00;;;;;;;30.88;45.97;98969.63;5121865;27;20227;-81
2022/06/24 08:11:45;;;;;;;3.80;3.50;;;;;;;30.89;44.46;98965.72;5078236;28;20349;-81
2022/06/24 08:14:13;;;;;;;4.10;2.78;;;;;;;30.83;39.28;98958.88;5117090;27;20310;-81
2022/06/24 08:16:40;;;;;;;6.22;3.10;;;;;;;31.06;37.34;98965.22;5094157;28;20258;-83
2022/06/24 08:19:13;;;;;;;3.25;2.78;;;;;;;31.44;37.26;98969.75;5078412;27;20280;-80
2022/06/24 08:21:40;;;;;;;4.65;2.80;;;;;;;31.74;36.78;98965.03;5073025;28;20298;-83
2022/06/24 08:24:07;;;;;;;4.13;2.53;;;;;;;32.02;36.88;98972.88;5117690;27;20231;-83
2022/06/24 08:26:34;;;;;;;4.80;3.33;;;;;;;32.45;35.88;98967.84;5098176;27;20225;-82
2022/06/24 08:29:01;;;;;;;2.83;2.60;;;;;;;32.58;35.47;98961.63;5098968;27;20239;-83
2022/06/24 08:31:27;;;;;;;3.75;2.88;;;;;;;32.57;35.17;98965.59;5110137;27;20234;-81
2022/06/24 08:33:54;;;;;;;3.58;2.80;;;;;;;32.12;35.64;98966.72;5119012;27;20250;-81
2022/06/24 08:36:26;;;;;;;5.10;3.10;;;;;;;32.05;36.09;98966.63;5111199;27;20674;-81
2022/06/24 08:38:54;;;;;;;3.05;2.83;;;;;;;31.95;36.58;98964.50;5119970;27;20240;-82
2022/06/24 08:41:23;;;;;;;3.53;3.03;;;;;;;31.67;37.82;98967.72;5120854;27;20227;-81
2022/06/24 08:43:54;;;;;;;4.05;3.63;;;;;;;31.09;38.79;98960.91;5120447;27;20608;-81
2022/06/24 08:46:22;;;;;;;5.72;5.07;;;;;;;30.64;40.76;98958.94;5081023;28;20271;-81
2022/06/24 08:48:49;;;;;;;3.22;2.90;;;;;;;30.28;41.32;98963.81;5066163;27;20236;-81
2022/06/24 08:51:23;;;;;;;5.18;4.68;;;;;;;30.07;42.14;98950.38;5106230;27;20277;-80
2022/06/24 08:53:55;;;;;;;4.38;3.30;;;;;;;29.73;44.67;98956.75;5090235;27;20227;-81
2022/06/24 08:56:42;;;;;;;3.85;3.55;;;;;;;29.60;44.20;98964.38;5095307;28;20266;-82
2022/06/24 08:59:08;;;;;;;5.25;3.75;;;;;;;29.71;44.62;98953.56;5110239;28;20231;-82
2022/06/24 09:01:41;;;;;;;4.65;3.55;;;;;;;30.00;44.62;98955.75;5111041;27;20266;-82
2022/06/24 09:04:09;;;;;;;4.40;3.17;;;;;;;30.25;43.34;98958.19;5103033;28;20227;-81
2022/06/24 09:06:41;;;;;;;3.40;3.20;;;;;;;30.32;43.85;98955.59;5098022;28;20728;-82
2022/06/24 09:09:08;;;;;;;3.70;3.40;;;;;;;30.45;42.92;98946.78;5095901;27;20238;-81
2022/06/24 09:11:39;;;;;;;5.40;3.30;;;;;;;30.52;43.85;98946.09;5114344;27;20224;-81
2022/06/24 09:14:07;;;;;;;3.80;3.50;;;;;;;30.49;43.17;98949.59;5095775;27;20241;-81
2022/06/24 09:16:37;;;;;;;2.95;2.75;;;;;;;30.57;43.51;98943.81;5117037;27;20219;-82
2022/06/24 09:19:14;;;;;;;3.13;2.92;;;;;;;31.02;42.36;98943.03;5121619;27;20283;-82
2022/06/24 09:21:42;;;;;;;3.88;3.10;;;;;;;31.26;40.84;98941.00;5094978;28;20231;-82
2022/06/24 09:24:09;;;;;;;4.13;3.22;;;;;;;31.22;40.86;98938.16;5065813;28;20654;-81
2022/06/24 09:26:38;;;;;;;4.45;4.05;;;;;;;30.95;42.12;98942.88;5079500;28;20215;-81
2022/06/24 09:29:09;;;;;;;3.97;3.40;;;;;;;30.65;42.00;98930.13;5097019;28;20658;-82
2022/06/24 09:31:38;;;;;;;4.15;3.75;;;;;;;30.65;41.59;98921.84;5100990;28;20230;-82
2022/06/24 09:34:10;;;;;;;3.58;3.28;;;;;;;30.52;40.88;98923.97;5086415;28;20711;-81
2022/06/24 09:36:39;;;;;;;4.65;3.22;;;;;;;30.47;41.10;98927.84;5105694;28;20276;-81
2022/06/24 09:39:13;;;;;;;3.50;3.20;;;;;;;30.41;40.05;98922.97;5102399;28;20723;-82
2022/06/24 09:41:55;;;;;;;4.55;3.10;;;;;;;30.44;40.48;98909.22;5071508;28;20247;-81
2022/06/24 09:44:24;;;;;;;4.95;3.20;;;;;;;30.34;41.38;98920.88;5058778;28;20746;-81
2022/06/24 09:47:04;;;;;;;3.53;3.30;;;;;;;30.21;40.83;98913.13;5088577;28;20305;-82
2022/06/24 09:49:31;;;;;;;3.80;3.50;;;;;;;30.20;41.40;98920.63;5083594;27;20210;-82
2022/06/24 09:51:58;;;;;;;3.60;3.30;;;;;;;30.48;39.58;98923.13;5080157;28;20318;-82
2022/06/24 09:54:25;;;;;;;4.80;3.20;;;;;;;30.45;40.39;98923.84;5094941;28;20235;-82
2022/06/24 09:56:52;;;;;;;3.20;2.90;;;;;;;30.54;40.68;98916.13;5101093;27;20795;-81
2022/06/24 10:02:13;;;;;;;3.63;3.33;;;;;;;29.99;41.35;98909.19;5105843;27;20225;-84
2022/06/24 10:04:50;;;;;;;3.35;3.05;;;;;;;29.99;41.97;98909.19;5102483;27;20238;-82
2022/06/24 10:07:18;;;;;;;6.95;3.03;;;;;;;30.13;41.16;98912.22;5123140;27;20227;-82
2022/06/24 10:09:46;;;;;;;3.75;3.42;;;;;;;30.14;42.52;98911.84;5080253;28;20771;-82
2022/06/24 10:12:14;;;;;;;4.18;3.10;;;;;;;30.24;42.48;98904.09;5082971;28;20239;-82
2022/06/24 10:14:40;;;;;;;4.50;3.03;;;;;;;30.18;42.75;98914.69;5102870;27;20321;-81
2022/06/24 10:17:07;;;;;;;3.95;3.10;;;;;;;30.16;41.02;98908.72;5082416;27;20318;-81
2022/06/24 10:19:34;;;;;;;4.15;2.90;;;;;;;30.08;42.62;98910.56;5100872;27;20234;-81
2022/06/24 10:22:01;;;;;;;3.65;3.10;;;;;;;30.16;39.87;98903.19;5109777;27;20303;-78
2022/06/24 10:24:39;;;;;;;3.28;2.85;;;;;;;30.19;40.49;98911.53;5096419;28;20318;-82
2022/06/24 10:27:05;;;;;;;4.43;2.70;;;;;;;30.29;39.73;98901.84;5109400;27;20730;-82
2022/06/24 10:29:33;;;;;;;3.83;3.28;;;;;;;30.37;38.62;98906.34;5114470;27;20247;-82
2022/06/24 10:32:01;;;;;;;3.78;2.78;;;;;;;30.27;38.26;98897.84;5119757;27;20235;-81
2022/06/24 10:34:33;;;;;;;3.13;2.83;;;;;;;30.02;38.44;98894.63;5080680;28;20234;-82
2022/06/24 10:37:10;;;;;;;4.85;2.83;;;;;;;29.73;40.57;98888.53;5116942;27;20242;-81
2022/06/24 10:39:48;;;;;;;4.05;3.15;;;;;;;29.55;40.37;98890.13;5078511;28;20302;-82
2022/06/24 10:42:15;;;;;;;4.15;3.10;;;;;;;29.51;39.78;98886.50;5100958;28;20695;-82
2022/06/24 10:44:59;;;;;;;5.05;3.10;;;;;;;29.46;40.29;98886.00;5080603;27;20285;-82
2022/06/24 10:47:37;;;;;;;4.07;2.92;;;;;;;29.87;40.32;98895.47;5099873;27;20230;-82
2022/06/24 10:50:06;;;;;;;2.95;2.55;;;;;;;30.10;39.84;98879.78;5098480;27;20227;-82
2022/06/24 10:52:48;;;;;;;4.20;2.95;;;;;;;30.11;40.94;98881.38;5100733;28;20658;-81
2022/06/24 10:55:14;;;;;;;3.03;2.78;;;;;;;30.33;38.16;98888.88;5104621;27;20222;-81
2022/06/24 10:57:49;;;;;;;2.80;2.60;;;;;;;30.39;38.44;98894.91;5108437;27;20877;-81
2022/06/24 11:00:24;;;;;;;3.13;2.90;;;;;;;30.57;39.56;98896.84;5079824;28;20227;-80
2022/06/24 11:02:52;;;;;;;3.20;2.90;;;;;;;30.82;39.44;98890.91;5098017;28;20303;-81
2022/06/24 11:05:25;;;;;;;3.30;2.97;;;;;;;30.84;40.12;98875.53;5117312;27;20229;-80
2022/06/24 11:07:52;;;;;;;4.30;3.30;;;;;;;30.87;39.94;98876.78;5087710;28;20232;-81
2022/06/24 11:10:24;;;;;;;3.15;2.80;;;;;;;30.78;42.16;98879.81;5112857;27;20239;-81
2022/06/24 11:12:52;;;;;;;4.88;3.45;;;;;;;30.75;41.63;98886.06;5105714;27;20670;-80
2022/06/24 11:15:22;;;;;;;3.88;3.00;;;;;;;30.72;43.60;98881.28;5110118;27;20284;-81
2022/06/24 11:17:48;;;;;;;3.40;3.10;;;;;;;30.84;41.99;98883.06;5097941;27;20219;-81
2022/06/24 11:20:17;;;;;;;3.30;3.10;;;;;;;30.71;40.90;98878.88;5116603;27;20228;-81
2022/06/24 11:22:45;;;;;;;3.38;2.92;;;;;;;30.75;42.37;98874.22;5091254;27;20279;-81
2022/06/24 11:25:13;;;;;;;4.13;3.40;;;;;;;30.83;42.15;98867.63;5116980;27;20231;-81
2022/06/24 11:27:40;;;;;;;3.33;3.05;;;;;;;30.89;40.40;98880.75;5118994;27;20229;-81
2022/06/24 11:30:08;;;;;;;3.63;3.10;;;;;;;30.93;40.53;98862.25;5090679;27;20292;-82
2022/06/24 11:33:01;;;;;;;3.33;3.00;;;;;;;31.12;40.63;98868.88;5099338;28;20227;-80
2022/06/24 11:35:29;;;;;;;4.53;2.90;;;;;;;31.10;40.98;98852.63;5114073;27;20559;-81
2022/06/24 11:37:56;;;;;;;3.95;2.92;;;;;;;31.00;40.65;98862.34;5100258;27;20666;-83
2022/06/24 11:40:27;;;;;;;3.85;2.72;;;;;;;31.24;40.42;98863.91;5106356;27;20641;-80
2022/06/24 11:43:02;;;;;;;3.53;3.05;;;;;;;31.47;39.56;98869.34;5116294;27;20253;-81
2022/06/24 11:45:32;;;;;;;4.90;3.40;;;;;;;31.73;39.07;98847.13;5086971;27;20222;-81
2022/06/24 11:47:59;;;;;;;4.72;3.35;;;;;;;31.98;39.75;98852.94;5115420;27;20239;-81
2022/06/24 11:50:26;;;;;;;4.50;3.42;;;;;;;32.18;40.33;98856.34;5095334;28;20227;-80